Latest Coastal Weather Observations for Taree Airport

IDN60701

Issued at 6:22 am EST Thursday 29 September 2016 (issued every 10 minutes, with the page automatically refreshed every 10 minutes)

About coastal observations | Map of coastal stations | Coastal observations for NSW | Marine services | Other Formats
Station Details ID: 060141 Name: TAREE AIRPORT AWS Lat: -31.89 Lon: 152.51 Height: 8.0 m
Data from the previous 72 hours. | See also: Recent months at Taree Airport
Date/Time
EST
Temp
°C
Wind Pressure Rain since
9am
mm
Weather Cloud Vis
km
Sea
Height
m
Swell
Dir  Spd
kts
Gust
kts
hPa Trend Height
m
Period
s
Dir
29/06:00am 15.7 NNE 8 12 1005.3 - 0.0 - Mostly cloudy 10 - - - -
29/05:30am 15.2 NNE 7 11 1005.5 - 0.0 - - 10 - - - -
29/05:00am 14.5 NNE 6 10 1005.5 - 0.0 - - 10 - - - -
29/04:30am 13.3 NE 7 9 1005.6 - 0.0 - - 10 - - - -
29/04:00am 13.4 NE 5 8 1005.9 - 0.0 - - 10 - - - -
29/03:30am 13.7 NNE 5 8 1006.3 - 0.0 - - 10 - - - -
29/03:00am 13.9 NNE 6 9 1006.8 - 0.0 - - 10 - - - -
29/02:30am 13.7 NNE 5 8 1007.2 - 0.0 - - 10 - - - -
29/02:00am 12.9 ENE 6 7 1007.6 - 0.0 - - 10 - - - -
29/01:30am 13.7 NNE 6 9 1008.4 - 0.0 - - 10 - - - -
29/01:00am 12.1 NNE 5 8 1009.1 - 0.0 - - 10 - - - -
29/12:30am 11.4 SSE 3 5 1009.5 - 0.0 - - 10 - - - -
29/12:00am 11.5 CALM 0 0 1010.1 - 0.0 - - 10 - - - -
 
Date/Time
EST
Temp
°C
Wind Pressure Rain since
9am
mm
Weather Cloud Vis
km
Sea
Height
m
Swell
Dir  Spd
kts
Gust
kts
hPa Trend Height
m
Period
s
Dir
28/11:30pm 10.8 NNE 2 4 1010.4 - 0.0 - - 10 - - - -
28/11:00pm 10.8 N 1 5 1010.7 - 0.0 - - 10 - - - -
28/10:30pm 10.8 CALM 0 0 1011.0 - 0.0 - - 10 - - - -
28/10:00pm 11.2 N 3 4 1011.3 - 0.0 - - 10 - - - -
28/09:30pm 11.7 CALM 0 0 1011.5 - 0.0 - - 10 - - - -
28/09:00pm 12.4 CALM 0 0 1011.7 - 0.0 - - 10 - - - -
28/08:30pm 13.5 CALM 0 0 1011.8 - 0.0 - - 10 - - - -
28/08:00pm 12.7 CALM 0 0 1011.6 - 0.0 - - 10 - - - -
28/07:30pm 13.0 CALM 0 0 1011.6 - 0.0 - - 10 - - - -
28/07:00pm 14.9 NE 1 3 1011.8 - 0.0 - - 10 - - - -
28/06:30pm 15.5 NE 3 4 1011.7 - 0.0 - - 10 - - - -
28/06:00pm 15.6 ENE 5 6 1011.3 - 0.0 - - 10 - - - -
28/05:30pm 17.4 E 6 9 1011.0 - 0.0 - - 10 - - - -
28/05:00pm 18.2 E 9 12 1010.8 - 0.0 - - 10 - - - -
28/04:30pm 18.7 E 9 13 1010.7 - 0.0 - - 10 - - - -
28/04:00pm 19.3 ESE 10 15 1010.7 - 0.0 - - 10 - - - -
28/03:30pm 19.5 ESE 11 16 1010.8 - 0.0 - - 10 - - - -
28/03:00pm 20.2 ESE 9 13 1011.0 - 0.0 - - 10 - - - -
28/02:30pm 20.0 ESE 10 15 1011.3 - 0.0 - - 10 - - - -
28/02:00pm 20.1 ESE 11 15 1011.5 - 0.0 - - 10 - - - -
28/01:30pm 20.3 SE 12 17 1011.8 - 0.0 - - 10 - - - -
28/01:00pm 21.7 S 5 10 1012.3 - 0.0 - - 10 - - - -
28/12:30pm 20.6 S 3 7 1012.7 - 0.0 - - 10 - - - -
28/12:00pm 20.3 SE 3 7 1013.0 - 0.0 - - 10 - - - -
28/11:30am 20.4 ENE 4 6 1013.3 - 0.0 - - 10 - - - -
28/11:00am 19.5 SSW 5 8 1013.8 - 0.0 - - 10 - - - -
28/10:30am 18.7 WSW 7 10 1014.0 - 0.0 - - 10 - - - -
28/10:00am 18.1 W 7 11 1014.2 - 0.0 - - 10 - - - -
28/09:30am 17.5 WSW 7 10 1014.3 - 0.0 - - 10 - - - -
28/09:00am 16.3 W 8 10 1014.4 - 0.0 - - 10 - - - -
28/08:30am 16.2 WNW 9 14 1014.6 - 0.0 - - 10 - - - -
28/08:00am 15.1 W 6 9 1014.4 - 0.0 - - 10 - - - -
28/07:30am 14.0 W 6 8 1014.4 - 0.0 - - 10 - - - -
28/07:00am 12.4 WNW 6 8 1014.3 - 0.0 - - 10 - - - -
28/06:30am 10.1 N 2 4 1014.2 - 0.0 - - 10 - - - -
28/06:00am 10.3 NW 8 9 1013.8 - 0.0 - - 10 - - - -
28/05:30am 8.4 NW 6 6 1013.6 - 0.0 - - 10 - - - -
28/05:00am 10.0 WNW 6 7 1013.1 - 0.0 - - 10 - - - -
28/04:30am 8.3 NNE 6 7 1012.9 - 0.0 - - 10 - - - -
28/04:00am 11.7 WNW 6 8 1012.7 - 0.0 - - 10 - - - -
28/03:30am 11.9 W 5 7 1012.4 - 0.0 - - 10 - - - -
28/03:00am 12.1 NNW 4 5 1012.4 - 0.0 - - 10 - - - -
28/02:30am 13.6 WSW 9 13 1012.3 - 0.0 - - 10 - - - -
28/02:00am 13.2 W 7 9 1012.1 - 0.0 - - 10 - - - -
28/01:30am 14.3 WSW 6 9 1012.1 - 0.0 - - 10 - - - -
28/01:00am 14.1 SW 9 13 1012.2 - 0.0 - - 10 - - - -
28/12:30am 13.8 SW 7 9 1012.2 - 0.0 - - 10 - - - -
28/12:00am 14.5 SW 8 11 1012.1 - 0.0 - - 10 - - - -
 
Date/Time
EST
Temp
°C
Wind Pressure Rain since
9am
mm
Weather Cloud Vis
km
Sea
Height
m
Swell
Dir  Spd
kts
Gust
kts
hPa Trend Height
m
Period
s
Dir
27/11:30pm 14.1 SW 8 10 1012.2 - 0.0 - - 10 - - - -
27/11:00pm 14.9 SW 6 7 1012.1 - 0.0 - - 10 - - - -
27/10:30pm 15.7 W 4 7 1011.8 - 0.0 - - 10 - - - -
27/10:00pm 16.2 WSW 7 11 1011.4 - 0.0 - - 10 - - - -
27/09:30pm 16.3 WSW 6 8 1011.3 - 0.0 - - 10 - - - -
27/09:00pm 17.3 W 6 9 1011.2 - 0.0 - - 10 - - - -
27/08:30pm 17.6 WSW 6 9 1010.8 - 0.0 - - 10 - - - -
27/08:00pm 17.9 W 5 7 1010.4 - 0.0 - - 10 - - - -
27/07:30pm 18.0 SW 7 9 1010.0 - 0.0 - - 10 - - - -
27/07:00pm 19.4 SW 8 12 1009.3 - 0.0 - - 10 - - - -
27/06:30pm 20.9 WSW 13 20 1008.5 - 0.0 - - 10 - - - -
27/06:00pm 21.9 WSW 17 27 1007.7 - 0.0 - - 10 - - - -
27/05:40pm 22.4 WSW 15 26 1007.2 - 0.0 - Partly cloudy 10 - - - -
27/05:30pm 22.7 WSW 10 15 1007.1 - 0.0 - Partly cloudy 10 - - - -
27/05:00pm 23.3 W 12 19 1006.4 - 0.0 - Partly cloudy 10 - - - -
27/04:30pm 23.0 W 13 21 1006.0 - 0.0 - Partly cloudy 10 - - - -
27/04:00pm 23.1 W 11 17 1006.0 - 0.0 - Partly cloudy 10 - - - -
27/03:30pm 23.0 W 14 20 1006.1 - 0.0 - Partly cloudy 10 - - - -
27/03:00pm 23.2 W 11 18 1006.3 - 0.0 - Partly cloudy 10 - - - -
27/02:30pm 23.2 W 13 21 1006.6 - 0.0 - Partly cloudy 10 - - - -
27/02:00pm 23.7 WNW 11 17 1006.8 - 0.0 - Partly cloudy 10 - - - -
27/01:33pm 23.5 WNW 17 27 1007.1 - 0.0 - Partly cloudy 10 - - - -
27/01:30pm 23.6 W 15 27 1007.0 - 0.0 - Partly cloudy 10 - - - -
27/01:00pm 24.3 W 14 20 1007.5 - 0.0 - - 10 - - - -
27/12:33pm 24.4 WNW 15 25 1007.9 - 0.0 - - 10 - - - -
27/12:30pm 24.6 WNW 14 21 1007.8 - 0.0 - - 10 - - - -
27/12:00pm 23.9 W 14 20 1008.4 - 0.0 - - 10 - - - -
27/11:46am 23.7 NW 11 21 1008.8 - 0.0 - - 10 - - - -
27/11:30am 22.6 WNW 6 9 1009.2 - 0.0 - - 10 - - - -
27/11:00am 22.3 WSW 7 11 1010.1 - 0.0 - - 10 - - - -
27/10:30am 21.7 WNW 10 15 1010.7 - 0.0 - - 10 - - - -
27/10:00am 20.6 W 8 12 1011.3 - 0.0 - - 10 - - - -
27/09:30am 18.8 WNW 5 7 1011.9 - 0.0 - - 10 - - - -
27/09:00am 17.6 WNW 5 7 1012.2 - 0.0 - - 10 - - - -
27/08:30am 16.8 NW 6 7 1012.8 - 0.0 - - 10 - - - -
27/08:00am 15.3 WNW 5 7 1013.0 - 0.0 - - 10 - - - -
27/07:30am 13.2 SW 5 6 1013.3 - 0.0 - - 10 - - - -
27/07:00am 11.5 SW 5 5 1013.2 - 0.0 - - 10 - - - -
27/06:30am 10.5 WSW 4 6 1013.2 - 0.0 - - 10 - - - -
27/06:00am 9.4 WSW 4 5 1013.2 - 0.0 - - 10 - - - -
27/05:30am 9.3 WNW 4 5 1013.0 - 0.0 - - 10 - - - -
27/05:00am 10.2 W 5 5 1012.8 - 0.0 - - 10 - - - -
27/04:30am 10.3 WNW 4 5 1012.6 - 0.0 - - 10 - - - -
27/04:00am 8.8 NNW 2 3 1012.2 - 0.0 - - 10 - - - -
27/03:30am 10.7 NW 4 6 1012.1 - 0.0 - - 10 - - - -
27/03:00am 11.3 NW 2 4 1012.1 - 0.0 - - 10 - - - -
27/02:30am 12.5 W 5 6 1012.0 - 0.0 - - 10 - - - -
27/02:00am 13.1 W 6 7 1012.3 - 0.0 - - 10 - - - -
27/01:30am 13.0 WSW 5 6 1012.4 - 0.0 - - 10 - - - -
27/01:00am 12.7 WSW 5 6 1012.5 - 0.0 - - 10 - - - -
27/12:30am 11.5 CALM 0 0 1012.6 - 0.0 - - 10 - - - -
27/12:00am 12.1 NW 5 6 1012.6 - 0.0 - - 10 - - - -
 
Date/Time
EST
Temp
°C
Wind Pressure Rain since
9am
mm
Weather Cloud Vis
km
Sea
Height
m
Swell
Dir  Spd
kts
Gust
kts
hPa Trend Height
m
Period
s
Dir
26/11:30pm 13.7 SW 5 7 1012.4 - 0.0 - - 10 - - - -
26/11:00pm 13.5 SW 5 7 1012.1 - 0.0 - - 10 - - - -
26/10:30pm 13.8 WNW 5 5 1012.3 - 0.0 - - 10 - - - -
26/10:00pm 13.5 W 5 7 1012.3 - 0.0 - - 10 - - - -
26/09:30pm 13.2 WSW 5 8 1012.3 - 0.0 - - 10 - - - -
26/09:00pm 13.1 NNW 4 5 1012.0 - 0.0 - Mostly clear 10 - - - -
26/08:30pm 14.0 SW 4 5 1011.9 - 0.0 - Partly cloudy 10 - - - -
26/08:00pm 14.7 W 4 5 1011.7 - 0.0 - - 10 - - - -
26/07:30pm 15.1 W 4 5 1011.3 - 0.0 - - 10 - - - -
26/07:00pm 15.5 CALM 0 0 1010.6 - 0.0 - - 10 - - - -
26/06:30pm 15.9 CALM 0 2 1010.0 - 0.0 - - 10 - - - -
26/06:00pm 16.9 E 3 3 1009.7 - 0.0 - - 10 - - - -
26/05:30pm 17.8 E 5 6 1009.4 - 0.0 - - 10 - - - -
26/05:00pm 18.6 E 6 8 1009.1 - 0.0 - - 10 - - - -
26/04:30pm 19.4 ESE 9 14 1008.9 - 0.0 - - 10 - - - -
26/04:00pm 19.0 ESE 9 13 1008.7 - 0.0 - - 10 - - - -
26/03:30pm 19.6 ESE 9 13 1008.6 - 0.0 - - 10 - - - -
26/03:00pm 19.7 ESE 11 16 1008.5 - 0.0 - - 10 - - - -
26/02:30pm 20.0 SE 11 15 1008.5 - 0.0 - - 10 - - - -
26/02:00pm 20.0 ESE 10 15 1008.9 - 0.0 - - 10 - - - -
26/01:30pm 21.0 ESE 10 14 1009.3 - 0.0 - - 10 - - - -
26/01:00pm 22.1 S 5 9 1009.6 - 0.0 - - 10 - - - -
26/12:30pm 22.4 NNE 6 9 1010.1 - 0.0 - - 10 - - - -
26/12:00pm 21.1 SSW 7 10 1010.7 - 0.0 - Mostly clear 10 - - - -
26/11:30am 20.7 SSW 8 10 1010.9 - 0.0 - - 10 - - - -
26/11:00am 20.9 WSW 6 14 1011.3 - 0.0 - - 10 - - - -
26/10:30am 19.8 SSW 9 12 1011.7 - 0.0 - - 10 - - - -
26/10:00am 19.7 WSW 9 14 1012.0 - 0.0 - Partly cloudy 10 - - - -
26/09:30am 18.9 WSW 7 13 1012.3 - 0.0 - Partly cloudy 10 - - - -
26/09:00am 18.3 W 9 14 1012.7 - 1.0 - - 10 - - - -
26/08:30am 17.9 WSW 8 12 1012.8 - 1.0 - - 10 - - - -
26/08:00am 17.1 WSW 7 9 1012.7 - 1.0 - - 10 - - - -
26/07:30am 15.6 NW 5 6 1012.8 - 1.0 - - 10 - - - -
26/07:00am 13.8 NW 6 7 1012.7 - 1.0 - - 10 - - - -
26/06:30am 12.4 NNE 4 5 1012.4 - 1.0 - - 10 - - - -

Other Formats:

Comma delimited format used in spreadsheet applications
http://www.bom.gov.au/fwo/IDN60701/IDN60701.95784.axf

JavaScript Object Notation format (JSON) in row-major order
http://www.bom.gov.au/fwo/IDN60701/IDN60701.95784.json